createdAt,value
2022-09-15T00:00:42.548Z,3.90
2022-09-15T00:03:12.575Z,4.07
2022-09-15T00:05:45.156Z,3.50
2022-09-15T00:08:15.558Z,4.07
2022-09-15T00:10:52.361Z,4.43
2022-09-15T00:13:24.539Z,4.40
2022-09-15T00:15:56.135Z,5.57
2022-09-15T00:18:26.619Z,5.00
2022-09-15T00:20:59.371Z,5.00
2022-09-15T00:23:29.452Z,4.10
2022-09-15T00:25:59.422Z,5.10
2022-09-15T00:28:29.443Z,4.20
2022-09-15T00:30:59.564Z,4.50
2022-09-15T00:33:29.648Z,4.30
2022-09-15T00:36:06.913Z,4.07
2022-09-15T00:38:39.265Z,5.10
2022-09-15T00:41:11.897Z,5.30
2022-09-15T00:43:53.300Z,5.40
2022-09-15T00:46:26.785Z,4.77
2022-09-15T00:49:06.670Z,3.77
2022-09-15T00:51:47.973Z,4.77
2022-09-15T00:54:29.683Z,4.27
2022-09-15T00:57:05.485Z,4.60
2022-09-15T00:59:39.883Z,4.20
2022-09-15T01:02:18.462Z,3.70
2022-09-15T01:04:50.745Z,3.43
2022-09-15T01:07:34.950Z,3.70
2022-09-15T01:10:13.746Z,3.33
2022-09-15T01:12:44.946Z,3.43
2022-09-15T01:15:15.611Z,3.77
2022-09-15T01:18:06.831Z,3.83
2022-09-15T01:21:18.147Z,4.20
2022-09-15T01:24:47.268Z,3.53
2022-09-15T01:27:57.370Z,3.17
2022-09-15T01:30:37.384Z,3.70
2022-09-15T01:33:21.052Z,3.77
2022-09-15T01:36:01.956Z,3.30
2022-09-15T01:38:53.604Z,3.20
2022-09-15T01:41:31.402Z,3.03
2022-09-15T01:44:09.755Z,3.20
2022-09-15T01:46:49.000Z,3.70
2022-09-15T01:49:25.874Z,2.90
2022-09-15T01:51:57.366Z,3.20
2022-09-15T01:54:33.183Z,4.17
2022-09-15T01:57:04.654Z,3.47
2022-09-15T01:59:34.804Z,3.13
2022-09-15T02:02:13.573Z,3.20
2022-09-15T02:04:52.151Z,3.20
2022-09-15T02:07:36.012Z,3.53
2022-09-15T02:10:17.001Z,4.07
2022-09-15T02:12:56.079Z,3.20
2022-09-15T02:15:33.471Z,2.97
2022-09-15T02:18:10.597Z,3.50
2022-09-15T02:20:50.069Z,3.13
2022-09-15T02:23:30.351Z,3.50
2022-09-15T02:26:07.839Z,2.90
2022-09-15T02:28:43.124Z,2.83
2022-09-15T02:31:18.806Z,2.63
2022-09-15T02:34:00.532Z,3.20
2022-09-15T02:36:33.388Z,3.07
2022-09-15T02:39:10.891Z,2.57
2022-09-15T02:41:42.354Z,2.17
2022-09-15T02:46:56.028Z,4.37
2022-09-15T02:49:26.070Z,2.60
2022-09-15T02:51:56.407Z,2.97
2022-09-15T02:54:26.364Z,2.80
2022-09-15T02:56:56.362Z,2.53
2022-09-15T02:59:26.330Z,2.80
2022-09-15T03:01:59.089Z,2.70
2022-09-15T03:04:29.184Z,2.80
2022-09-15T03:06:59.102Z,2.40
2022-09-15T03:09:29.226Z,2.50
2022-09-15T03:11:59.264Z,2.47
2022-09-15T03:14:29.671Z,2.43
2022-09-15T03:17:02.712Z,3.00
2022-09-15T03:19:32.919Z,2.53
2022-09-15T03:22:03.272Z,3.27
2022-09-15T03:24:33.729Z,3.30
2022-09-15T03:27:03.824Z,2.73
2022-09-15T03:29:34.502Z,2.70
2022-09-15T03:32:07.567Z,2.73
2022-09-15T03:34:37.506Z,2.70
2022-09-15T03:37:07.627Z,2.73
2022-09-15T03:39:37.902Z,2.73
2022-09-15T03:42:08.597Z,2.80
2022-09-15T03:44:38.738Z,2.97
2022-09-15T03:47:11.364Z,2.80
2022-09-15T03:49:41.287Z,2.80
2022-09-15T03:52:11.273Z,2.40
2022-09-15T03:54:41.446Z,3.23
2022-09-15T03:57:11.683Z,2.33
2022-09-15T03:59:41.624Z,3.00
2022-09-15T04:02:14.419Z,2.70
2022-09-15T04:04:44.363Z,2.90
2022-09-15T04:07:14.353Z,2.80
2022-09-15T04:09:44.272Z,1.93
2022-09-15T04:12:14.192Z,3.10
2022-09-15T04:14:44.142Z,2.77
2022-09-15T04:17:16.702Z,2.53
2022-09-15T04:19:46.665Z,2.53
2022-09-15T04:22:17.954Z,2.63
2022-09-15T04:24:48.521Z,2.60
2022-09-15T04:27:19.104Z,2.83
2022-09-15T04:29:49.086Z,2.57
2022-09-15T04:32:22.731Z,2.57
2022-09-15T04:34:53.423Z,2.27
2022-09-15T04:37:23.361Z,2.00
2022-09-15T04:39:53.869Z,2.50
2022-09-15T04:42:24.079Z,2.50
2022-09-15T04:44:54.173Z,1.87
2022-09-15T04:47:27.470Z,2.20
2022-09-15T04:49:57.407Z,2.00
2022-09-15T04:52:27.332Z,2.20
2022-09-15T04:54:57.396Z,2.33
2022-09-15T04:57:27.356Z,2.30
2022-09-15T04:59:57.348Z,2.00
2022-09-15T05:02:29.966Z,2.37
2022-09-15T05:05:00.011Z,1.73
2022-09-15T05:07:30.037Z,2.10
2022-09-15T05:09:59.971Z,2.30
2022-09-15T05:12:29.871Z,2.10
2022-09-15T05:14:59.817Z,2.10
2022-09-15T05:17:33.670Z,2.37
2022-09-15T05:20:04.894Z,2.93
2022-09-15T05:22:39.540Z,2.17
2022-09-15T05:25:13.187Z,2.50
2022-09-15T05:27:43.133Z,1.90
2022-09-15T05:30:36.758Z,2.30
2022-09-15T05:33:07.106Z,2.13
2022-09-15T05:35:37.046Z,2.00
2022-09-15T05:38:07.055Z,2.17
2022-09-15T05:40:37.148Z,2.23
2022-09-15T05:43:07.026Z,1.60
2022-09-15T05:45:37.166Z,2.50
2022-09-15T05:48:09.715Z,2.07
2022-09-15T05:50:40.504Z,2.43
2022-09-15T05:53:10.634Z,2.10
2022-09-15T05:55:41.091Z,1.80
2022-09-15T05:58:11.313Z,1.70
2022-09-15T06:00:41.763Z,1.80
2022-09-15T06:03:17.754Z,1.70
2022-09-15T06:05:47.923Z,2.00
2022-09-15T06:08:17.872Z,1.80
2022-09-15T06:10:48.184Z,2.10
2022-09-15T06:13:18.105Z,2.10
2022-09-15T06:15:48.141Z,2.00
2022-09-15T06:18:20.638Z,1.70
2022-09-15T06:20:50.555Z,1.60
2022-09-15T06:23:20.479Z,2.63
2022-09-15T06:25:50.433Z,2.57
2022-09-15T06:28:20.343Z,1.50
2022-09-15T06:30:51.758Z,1.70
2022-09-15T06:33:24.278Z,4.67
2022-09-15T06:35:54.333Z,1.80
2022-09-15T06:38:24.370Z,3.47
2022-09-15T06:40:59.037Z,2.40
2022-09-15T06:43:29.307Z,2.10
2022-09-15T06:46:06.196Z,2.53
2022-09-15T06:48:39.983Z,2.17
2022-09-15T06:51:13.079Z,2.10
2022-09-15T06:53:44.092Z,1.57
2022-09-15T06:56:17.236Z,1.93
2022-09-15T06:58:49.361Z,1.80
2022-09-15T07:01:25.287Z,1.70
2022-09-15T07:03:59.317Z,1.70
2022-09-15T07:06:31.906Z,1.77
2022-09-15T07:09:02.526Z,2.20
2022-09-15T07:11:33.711Z,1.90
2022-09-15T07:14:03.698Z,2.17
2022-09-15T07:16:34.172Z,2.40
2022-09-15T07:19:07.399Z,1.87
2022-09-15T07:21:37.764Z,2.30
2022-09-15T07:24:08.378Z,2.50
2022-09-15T07:26:38.470Z,2.00
2022-09-15T07:29:09.822Z,1.90
2022-09-15T07:31:41.692Z,2.30
2022-09-15T07:34:14.418Z,2.03
2022-09-15T07:36:44.347Z,2.73
2022-09-15T07:39:14.315Z,2.20
2022-09-15T07:41:44.230Z,2.57
2022-09-15T07:44:14.384Z,3.20
2022-09-15T07:46:44.281Z,2.33
2022-09-15T07:49:17.038Z,2.07
2022-09-15T07:51:46.969Z,1.97
2022-09-15T07:54:21.972Z,2.00
2022-09-15T07:56:53.019Z,2.30
2022-09-15T07:59:23.004Z,2.10
2022-09-15T08:01:53.100Z,2.20
2022-09-15T08:04:25.771Z,2.40
2022-09-15T08:06:55.697Z,2.57
2022-09-15T08:09:25.620Z,2.63
2022-09-15T08:11:55.565Z,2.10
2022-09-15T08:14:25.770Z,3.00
2022-09-15T08:16:55.711Z,2.67
2022-09-15T08:19:28.316Z,3.37
2022-09-15T08:21:58.260Z,3.10
2022-09-15T08:24:28.707Z,2.60
2022-09-15T08:27:00.109Z,2.57
2022-09-15T08:29:30.030Z,2.40
2022-09-15T08:31:59.968Z,3.30
2022-09-15T08:34:32.727Z,3.67
2022-09-15T08:37:02.683Z,3.20
2022-09-15T08:39:32.611Z,2.53
2022-09-15T08:42:05.199Z,3.50
2022-09-15T08:44:46.422Z,2.83
2022-09-15T08:47:21.942Z,3.30
2022-09-15T08:50:04.049Z,3.87
2022-09-15T08:52:41.498Z,2.83
2022-09-15T08:55:20.951Z,3.00
2022-09-15T08:57:51.271Z,2.93
2022-09-15T09:00:21.440Z,3.10
2022-09-15T09:03:30.133Z,3.10
2022-09-15T09:06:17.485Z,2.80
2022-09-15T09:09:25.165Z,2.83
2022-09-15T09:12:18.143Z,2.60
2022-09-15T09:15:10.432Z,3.10
2022-09-15T09:18:09.719Z,2.97
2022-09-15T09:20:55.138Z,3.00
2022-09-15T09:23:32.483Z,2.83
2022-09-15T09:26:08.616Z,2.53
2022-09-15T09:28:45.848Z,2.83
2022-09-15T09:31:24.827Z,2.77
2022-09-15T09:34:02.317Z,2.47
2022-09-15T09:36:32.324Z,2.20
2022-09-15T09:39:06.351Z,2.57
2022-09-15T09:41:39.944Z,3.50
2022-09-15T09:44:16.825Z,2.53
2022-09-15T09:46:47.452Z,2.50
2022-09-15T09:49:25.294Z,1.80
2022-09-15T09:51:59.900Z,2.90
2022-09-15T09:54:35.563Z,2.20
2022-09-15T09:57:25.508Z,2.20
2022-09-15T09:59:55.452Z,2.33
2022-09-15T10:02:27.445Z,1.90
2022-09-15T10:05:18.859Z,2.13
2022-09-15T10:07:50.264Z,1.90
2022-09-15T10:10:32.394Z,2.13
2022-09-15T10:13:05.822Z,2.20
2022-09-15T10:15:39.103Z,1.87
2022-09-15T10:18:09.193Z,2.00
2022-09-15T10:20:50.627Z,2.40
2022-09-15T10:23:29.842Z,2.00
2022-09-15T10:26:32.158Z,1.80
2022-09-15T10:29:18.555Z,2.10
2022-09-15T10:31:49.350Z,1.83
2022-09-15T10:34:39.154Z,1.90
2022-09-15T10:37:23.582Z,1.73
2022-09-15T10:39:58.396Z,1.17
2022-09-15T10:42:51.558Z,2.10
2022-09-15T10:45:34.842Z,3.00
2022-09-15T10:48:45.993Z,1.47
2022-09-15T10:51:40.844Z,1.50
2022-09-15T10:54:47.034Z,1.80
2022-09-15T10:57:40.199Z,1.40
2022-09-15T11:00:20.931Z,2.20
2022-09-15T11:03:31.294Z,1.93
2022-09-15T11:06:16.015Z,2.70
2022-09-15T11:09:16.313Z,3.80
2022-09-15T11:12:07.418Z,3.27
2022-09-15T11:14:53.293Z,3.17
2022-09-15T11:17:46.543Z,4.50
2022-09-15T11:20:46.466Z,4.27
2022-09-15T11:23:24.161Z,5.50
2022-09-15T11:26:03.593Z,6.30
2022-09-15T11:28:42.137Z,5.63
2022-09-15T11:31:20.246Z,6.67
2022-09-15T11:33:59.589Z,5.97
2022-09-15T11:36:37.994Z,5.03
2022-09-15T11:39:19.560Z,5.40
2022-09-15T11:41:56.585Z,6.13
2022-09-15T11:44:34.316Z,6.60
2022-09-15T11:47:25.063Z,5.67
2022-09-15T11:50:04.587Z,7.20
2022-09-15T11:52:55.014Z,8.00
2022-09-15T11:55:36.986Z,7.00
2022-09-15T11:58:22.355Z,8.50
2022-09-15T12:01:00.027Z,8.67
2022-09-15T12:03:38.923Z,8.70
2022-09-15T12:06:20.078Z,9.10
2022-09-15T12:09:00.971Z,9.70
2022-09-15T12:11:35.096Z,9.13
2022-09-15T12:14:07.971Z,8.63
2022-09-15T12:16:38.835Z,8.60
2022-09-15T12:19:18.625Z,10.00
2022-09-15T12:22:01.598Z,8.77
2022-09-15T12:24:43.986Z,8.80
2022-09-15T12:27:19.562Z,10.20
2022-09-15T12:29:54.478Z,8.10
2022-09-15T12:32:29.358Z,8.20
2022-09-15T12:35:33.919Z,8.40
2022-09-15T12:38:06.545Z,6.60
2022-09-15T12:40:42.799Z,8.13
2022-09-15T12:43:26.678Z,4.90
2022-09-15T12:46:01.031Z,5.30
2022-09-15T12:48:34.235Z,5.37
2022-09-15T12:51:10.479Z,4.70
2022-09-15T12:53:57.957Z,4.80
2022-09-15T12:56:31.215Z,5.80
2022-09-15T12:59:08.260Z,5.50
2022-09-15T13:01:52.945Z,5.37
2022-09-15T13:04:55.028Z,5.43
2022-09-15T13:07:59.296Z,6.03
2022-09-15T13:10:40.032Z,5.50
2022-09-15T13:13:33.581Z,6.50
2022-09-15T13:16:05.824Z,7.50
2022-09-15T13:18:36.844Z,7.30
2022-09-15T13:21:16.536Z,6.70
2022-09-15T13:23:53.562Z,6.00
2022-09-15T13:26:30.428Z,5.80
2022-09-15T13:29:01.095Z,5.43
2022-09-15T13:31:45.030Z,5.97
2022-09-15T13:35:08.815Z,5.20
2022-09-15T13:38:23.986Z,4.83
2022-09-15T13:41:43.084Z,5.40
2022-09-15T13:44:58.691Z,5.20
2022-09-15T13:47:56.022Z,5.27
2022-09-15T13:50:33.690Z,4.90
2022-09-15T13:53:29.327Z,4.40
2022-09-15T13:55:59.419Z,5.07
2022-09-15T14:01:26.358Z,3.93
2022-09-15T14:04:01.155Z,3.90
2022-09-15T14:06:38.778Z,4.33
2022-09-15T14:09:17.251Z,4.33
2022-09-15T14:11:52.243Z,4.43
2022-09-15T14:14:39.980Z,4.00
2022-09-15T14:17:24.082Z,3.70
2022-09-15T14:19:57.763Z,4.30
2022-09-15T14:22:31.819Z,3.87
2022-09-15T14:25:09.191Z,3.47
2022-09-15T14:27:47.078Z,4.07
2022-09-15T14:30:26.827Z,4.33
2022-09-15T14:33:01.279Z,4.00
2022-09-15T14:35:37.979Z,3.53
2022-09-15T14:38:08.360Z,3.80
2022-09-15T14:40:41.947Z,3.30
2022-09-15T14:43:28.552Z,4.10
2022-09-15T14:46:13.846Z,3.37
2022-09-15T14:48:44.001Z,3.10
2022-09-15T14:51:24.346Z,3.80
2022-09-15T14:54:00.000Z,3.60
2022-09-15T14:56:35.504Z,3.60
2022-09-15T14:59:10.439Z,3.63
2022-09-15T15:01:56.989Z,3.83
2022-09-15T15:04:37.905Z,4.10
2022-09-15T15:07:19.711Z,3.70
2022-09-15T15:09:56.589Z,3.90
2022-09-15T15:12:30.259Z,4.87
2022-09-15T15:15:03.006Z,4.20
2022-09-15T15:17:44.238Z,4.30
2022-09-15T15:20:22.916Z,3.30
2022-09-15T15:23:16.112Z,4.10
2022-09-15T15:25:47.024Z,4.37
2022-09-15T15:28:35.964Z,4.80
2022-09-15T15:31:19.114Z,4.00
2022-09-15T15:33:56.926Z,4.10
2022-09-15T15:36:30.043Z,4.30
2022-09-15T15:39:04.103Z,4.20
2022-09-15T15:41:39.710Z,4.87
2022-09-15T15:44:29.332Z,4.83
2022-09-15T15:47:04.294Z,4.27
2022-09-15T15:49:46.249Z,4.93
2022-09-15T15:52:26.250Z,5.00
2022-09-15T15:54:56.678Z,4.80
2022-09-15T15:57:30.357Z,4.70
2022-09-15T16:00:02.443Z,3.80
2022-09-15T16:02:34.225Z,5.00
2022-09-15T16:05:07.520Z,4.30
2022-09-15T16:07:37.768Z,4.30
2022-09-15T16:10:10.002Z,4.67
2022-09-15T16:12:39.987Z,4.70
2022-09-15T16:15:16.941Z,4.80
2022-09-15T16:17:47.295Z,5.97
2022-09-15T16:20:21.542Z,5.13
2022-09-15T16:22:51.551Z,4.17
2022-09-15T16:25:34.554Z,4.93
2022-09-15T16:28:05.274Z,5.20
2022-09-15T16:30:36.022Z,4.83
2022-09-15T16:33:06.511Z,5.50
2022-09-15T16:35:51.398Z,5.30
2022-09-15T16:38:21.704Z,5.00
2022-09-15T16:40:52.723Z,5.77
2022-09-15T16:43:24.779Z,5.93
2022-09-15T16:45:55.816Z,6.00
2022-09-15T16:48:25.936Z,5.67
2022-09-15T16:53:48.863Z,5.27
2022-09-15T16:56:19.209Z,6.70
2022-09-15T16:58:49.360Z,5.80
2022-09-15T17:01:21.836Z,5.53
2022-09-15T17:03:52.282Z,5.80
2022-09-15T17:06:24.783Z,6.10
2022-09-15T17:08:55.675Z,6.00
2022-09-15T17:11:25.655Z,5.83
2022-09-15T17:13:55.602Z,6.60
2022-09-15T17:16:25.555Z,6.97
2022-09-15T17:18:55.520Z,6.27
2022-09-15T17:21:28.016Z,6.87
2022-09-15T17:23:57.999Z,5.23
2022-09-15T17:26:31.244Z,5.73
2022-09-15T17:29:01.672Z,6.10
2022-09-15T17:31:32.449Z,6.23
2022-09-15T17:34:02.691Z,5.87
2022-09-15T17:36:37.276Z,5.30
2022-09-15T17:39:07.235Z,5.00
2022-09-15T17:41:38.657Z,5.47
2022-09-15T17:44:11.863Z,4.70
2022-09-15T17:46:41.971Z,5.73
2022-09-15T17:49:12.006Z,6.33
2022-09-15T17:51:44.543Z,6.10
2022-09-15T17:54:14.623Z,5.77
2022-09-15T17:56:44.538Z,4.67
2022-09-15T17:59:16.293Z,6.80
2022-09-15T18:01:46.475Z,6.33
2022-09-15T18:04:16.483Z,6.23
2022-09-15T18:06:48.931Z,5.83
2022-09-15T18:09:18.883Z,5.50
2022-09-15T18:11:48.889Z,6.30
2022-09-15T18:14:18.878Z,6.30
2022-09-15T18:16:49.215Z,6.03
2022-09-15T18:19:19.128Z,6.20
2022-09-15T18:21:56.653Z,6.30
2022-09-15T18:24:26.611Z,6.77
2022-09-15T18:26:56.587Z,6.90
2022-09-15T18:29:26.806Z,6.50
2022-09-15T18:31:59.306Z,6.17
2022-09-15T18:34:29.250Z,6.03
2022-09-15T18:37:02.730Z,6.73
2022-09-15T18:39:32.712Z,6.73
2022-09-15T18:42:02.707Z,7.50
2022-09-15T18:44:32.590Z,6.57
2022-09-15T18:47:02.541Z,6.27
2022-09-15T18:49:32.438Z,6.23
2022-09-15T18:52:05.699Z,5.77
2022-09-15T18:54:36.310Z,7.67
2022-09-15T18:57:06.650Z,6.60
2022-09-15T18:59:36.572Z,6.80
2022-09-15T19:02:06.583Z,7.47
2022-09-15T19:04:40.504Z,7.10
2022-09-15T19:07:15.059Z,8.20
2022-09-15T19:09:45.287Z,6.83
2022-09-15T19:12:15.298Z,6.97
2022-09-15T19:14:46.702Z,6.47
2022-09-15T19:17:17.596Z,6.23
2022-09-15T19:19:47.891Z,7.40
2022-09-15T19:22:20.469Z,7.40
2022-09-15T19:24:50.436Z,6.53
2022-09-15T19:27:20.612Z,8.17
2022-09-15T19:29:50.839Z,8.47
2022-09-15T19:32:22.230Z,9.40
2022-09-15T19:34:52.794Z,10.17
2022-09-15T19:37:25.506Z,10.13
2022-09-15T19:39:55.797Z,8.73
2022-09-15T19:42:25.796Z,8.57
2022-09-15T19:44:55.726Z,8.13
2022-09-15T19:47:25.865Z,9.30
2022-09-15T19:49:55.976Z,9.07
2022-09-15T19:52:28.948Z,8.07
2022-09-15T19:54:59.030Z,9.40
2022-09-15T19:57:29.340Z,8.27
2022-09-15T19:59:59.312Z,7.53
2022-09-15T20:02:29.425Z,8.47
2022-09-15T20:04:59.693Z,8.60
2022-09-15T20:07:33.415Z,7.13
2022-09-15T20:10:03.419Z,7.57
2022-09-15T20:12:33.347Z,7.60
2022-09-15T20:15:03.359Z,8.60
2022-09-15T20:17:33.588Z,8.90
2022-09-15T20:20:03.644Z,9.30
2022-09-15T20:22:36.159Z,9.93
2022-09-15T20:25:06.869Z,8.10
2022-09-15T20:27:37.100Z,7.80
2022-09-15T20:30:09.687Z,8.33
2022-09-15T20:32:39.680Z,8.83
2022-09-15T20:35:10.191Z,8.50
2022-09-15T20:37:42.719Z,9.37
2022-09-15T20:40:12.857Z,9.20
2022-09-15T20:42:42.780Z,9.80
2022-09-15T20:45:14.174Z,9.97
2022-09-15T20:47:44.154Z,9.40
2022-09-15T20:50:14.357Z,9.70
2022-09-15T20:52:47.166Z,9.93
2022-09-15T20:55:17.315Z,9.80
2022-09-15T20:57:47.709Z,10.27
2022-09-15T21:00:18.807Z,10.03
2022-09-15T21:02:53.959Z,10.57
2022-09-15T21:05:23.891Z,10.40
2022-09-15T21:07:56.380Z,10.70
2022-09-15T21:10:27.082Z,10.20
2022-09-15T21:12:57.360Z,11.20
2022-09-15T21:15:27.389Z,10.73
2022-09-15T21:17:57.332Z,9.73
2022-09-15T21:20:27.318Z,10.83
2022-09-15T21:23:00.137Z,12.37
2022-09-15T21:25:30.098Z,12.00
2022-09-15T21:28:00.002Z,11.57
2022-09-15T21:30:29.893Z,12.50
2022-09-15T21:33:00.694Z,11.17
2022-09-15T21:35:32.622Z,13.33
2022-09-15T21:38:05.104Z,11.77
2022-09-15T21:40:35.175Z,14.10
2022-09-15T21:43:05.347Z,13.07
2022-09-15T21:45:35.347Z,11.73
2022-09-15T21:48:05.736Z,10.23
2022-09-15T21:50:36.271Z,11.23
2022-09-15T21:53:08.946Z,11.93
2022-09-15T21:55:41.091Z,12.13
2022-09-15T21:58:11.075Z,11.60
2022-09-15T22:00:42.327Z,12.57
2022-09-15T22:03:12.949Z,10.33
2022-09-15T22:05:44.072Z,11.47
2022-09-15T22:08:19.423Z,9.87
2022-09-15T22:10:49.382Z,11.40
2022-09-15T22:13:19.421Z,10.90
2022-09-15T22:15:49.336Z,12.03
2022-09-15T22:18:19.530Z,10.20
2022-09-15T22:20:49.572Z,10.77
2022-09-15T22:23:22.050Z,9.27
2022-09-15T22:25:51.975Z,8.73
2022-09-15T22:28:22.016Z,8.93
2022-09-15T22:30:51.968Z,8.07
2022-09-15T22:33:21.975Z,7.80
2022-09-15T22:35:51.898Z,8.33
2022-09-15T22:38:26.351Z,8.07
2022-09-15T22:40:56.312Z,9.10
2022-09-15T22:43:26.570Z,8.17
2022-09-15T22:45:56.543Z,8.40
2022-09-15T22:48:26.758Z,8.03
2022-09-15T22:50:57.051Z,8.33
2022-09-15T22:53:29.995Z,9.43
2022-09-15T22:56:08.537Z,9.47
2022-09-15T22:58:40.237Z,8.90
2022-09-15T23:01:13.802Z,9.30
2022-09-15T23:03:44.276Z,8.37
2022-09-15T23:06:14.200Z,8.10
2022-09-15T23:08:46.831Z,8.00
2022-09-15T23:11:17.188Z,8.23
2022-09-15T23:13:47.843Z,8.43
2022-09-15T23:16:17.969Z,7.80
2022-09-15T23:18:48.486Z,8.50
2022-09-15T23:21:18.407Z,8.50
2022-09-15T23:23:51.513Z,8.63
2022-09-15T23:26:24.605Z,8.77
2022-09-15T23:28:55.345Z,9.83
2022-09-15T23:31:25.606Z,8.83
2022-09-15T23:33:55.566Z,8.93
2022-09-15T23:36:25.618Z,9.77
2022-09-15T23:38:58.350Z,9.13
2022-09-15T23:41:28.391Z,9.67
2022-09-15T23:43:59.883Z,10.63
2022-09-15T23:46:29.974Z,10.27
2022-09-15T23:49:00.020Z,9.90
2022-09-15T23:51:29.977Z,9.10
2022-09-15T23:54:03.395Z,11.03
2022-09-15T23:56:33.857Z,8.80
2022-09-15T23:59:03.934Z,10.40
